sensor_id;sensor_type;location;lat;lon;timestamp;temperature;humidity
42365;DHT22;28498;54.400;18.566;2024-02-16T00:01:08;9.40;99.90
42365;DHT22;28498;54.400;18.566;2024-02-16T00:03:35;9.50;99.90
42365;DHT22;28498;54.400;18.566;2024-02-16T00:06:03;9.40;99.90
42365;DHT22;28498;54.400;18.566;2024-02-16T00:08:30;9.50;99.90
42365;DHT22;28498;54.400;18.566;2024-02-16T00:10:57;9.40;99.90
42365;DHT22;28498;54.400;18.566;2024-02-16T00:13:25;9.50;99.90
42365;DHT22;28498;54.400;18.566;2024-02-16T00:15:52;9.50;99.90
42365;DHT22;28498;54.400;18.566;2024-02-16T00:18:19;9.40;99.90
42365;DHT22;28498;54.400;18.566;2024-02-16T00:20:46;9.40;99.90
42365;DHT22;28498;54.400;18.566;2024-02-16T00:23:14;9.40;99.90
42365;DHT22;28498;54.400;18.566;2024-02-16T00:25:41;9.40;99.90
42365;DHT22;28498;54.400;18.566;2024-02-16T00:28:08;9.40;99.90
42365;DHT22;28498;54.400;18.566;2024-02-16T00:30:36;9.50;99.90
42365;DHT22;28498;54.400;18.566;2024-02-16T00:33:03;9.50;99.90
42365;DHT22;28498;54.400;18.566;2024-02-16T00:35:30;9.50;99.90
42365;DHT22;28498;54.400;18.566;2024-02-16T00:38:00;9.50;99.90
42365;DHT22;28498;54.400;18.566;2024-02-16T00:40:27;9.50;99.90
42365;DHT22;28498;54.400;18.566;2024-02-16T00:42:55;9.50;99.90
42365;DHT22;28498;54.400;18.566;2024-02-16T00:45:22;9.50;99.90
42365;DHT22;28498;54.400;18.566;2024-02-16T00:47:49;9.50;99.90
42365;DHT22;28498;54.400;18.566;2024-02-16T00:50:16;9.50;99.90
42365;DHT22;28498;54.400;18.566;2024-02-16T00:52:43;9.50;99.90
42365;DHT22;28498;54.400;18.566;2024-02-16T00:55:13;9.50;99.90
42365;DHT22;28498;54.400;18.566;2024-02-16T00:57:40;9.50;99.90
42365;DHT22;28498;54.400;18.566;2024-02-16T01:00:08;9.50;99.90
42365;DHT22;28498;54.400;18.566;2024-02-16T01:02:36;9.50;99.90
42365;DHT22;28498;54.400;18.566;2024-02-16T01:05:04;9.50;99.90
42365;DHT22;28498;54.400;18.566;2024-02-16T01:07:31;9.50;99.90
42365;DHT22;28498;54.400;18.566;2024-02-16T01:09:59;9.50;99.90
42365;DHT22;28498;54.400;18.566;2024-02-16T01:12:27;9.50;99.90
42365;DHT22;28498;54.400;18.566;2024-02-16T01:14:54;9.50;99.90
42365;DHT22;28498;54.400;18.566;2024-02-16T01:17:21;9.50;99.90
42365;DHT22;28498;54.400;18.566;2024-02-16T01:19:48;9.50;99.90
42365;DHT22;28498;54.400;18.566;2024-02-16T01:22:15;9.50;99.90
42365;DHT22;28498;54.400;18.566;2024-02-16T01:24:42;9.50;99.90
42365;DHT22;28498;54.400;18.566;2024-02-16T01:27:09;9.40;99.90
42365;DHT22;28498;54.400;18.566;2024-02-16T01:29:37;9.40;99.90
42365;DHT22;28498;54.400;18.566;2024-02-16T01:32:05;9.50;99.90
42365;DHT22;28498;54.400;18.566;2024-02-16T01:34:32;9.50;99.90
42365;DHT22;28498;54.400;18.566;2024-02-16T01:36:59;9.50;99.90
42365;DHT22;28498;54.400;18.566;2024-02-16T01:39:29;9.50;99.90
42365;DHT22;28498;54.400;18.566;2024-02-16T01:41:56;9.50;99.90
42365;DHT22;28498;54.400;18.566;2024-02-16T01:44:24;9.50;99.90
42365;DHT22;28498;54.400;18.566;2024-02-16T01:46:51;9.50;99.90
42365;DHT22;28498;54.400;18.566;2024-02-16T01:49:18;9.50;99.90
42365;DHT22;28498;54.400;18.566;2024-02-16T01:51:46;9.50;99.90
42365;DHT22;28498;54.400;18.566;2024-02-16T01:54:14;9.50;99.90
42365;DHT22;28498;54.400;18.566;2024-02-16T01:56:45;9.50;99.90
42365;DHT22;28498;54.400;18.566;2024-02-16T01:59:13;9.50;99.90
42365;DHT22;28498;54.400;18.566;2024-02-16T02:01:41;9.50;99.90
42365;DHT22;28498;54.400;18.566;2024-02-16T02:04:08;9.50;99.90
42365;DHT22;28498;54.400;18.566;2024-02-16T02:06:35;9.50;99.90
42365;DHT22;28498;54.400;18.566;2024-02-16T02:09:03;9.50;99.90
42365;DHT22;28498;54.400;18.566;2024-02-16T02:11:30;9.50;99.90
42365;DHT22;28498;54.400;18.566;2024-02-16T02:13:57;9.50;99.90
42365;DHT22;28498;54.400;18.566;2024-02-16T02:16:25;9.50;99.90
42365;DHT22;28498;54.400;18.566;2024-02-16T02:18:53;9.50;99.90
42365;DHT22;28498;54.400;18.566;2024-02-16T02:21:21;9.50;99.90
42365;DHT22;28498;54.400;18.566;2024-02-16T02:23:48;9.50;99.90
42365;DHT22;28498;54.400;18.566;2024-02-16T02:26:15;9.50;99.90
42365;DHT22;28498;54.400;18.566;2024-02-16T02:28:45;9.60;99.90
42365;DHT22;28498;54.400;18.566;2024-02-16T02:31:13;9.60;99.90
42365;DHT22;28498;54.400;18.566;2024-02-16T02:33:40;9.60;99.90
42365;DHT22;28498;54.400;18.566;2024-02-16T02:36:07;9.60;99.90
42365;DHT22;28498;54.400;18.566;2024-02-16T02:38:35;9.60;99.90
42365;DHT22;28498;54.400;18.566;2024-02-16T02:41:02;9.50;99.90
42365;DHT22;28498;54.400;18.566;2024-02-16T02:43:33;9.60;99.90
42365;DHT22;28498;54.400;18.566;2024-02-16T02:46:01;9.60;99.90
42365;DHT22;28498;54.400;18.566;2024-02-16T02:48:28;9.60;99.90
42365;DHT22;28498;54.400;18.566;2024-02-16T02:50:55;9.60;99.90
42365;DHT22;28498;54.400;18.566;2024-02-16T02:53:23;9.60;99.90
42365;DHT22;28498;54.400;18.566;2024-02-16T02:55:50;9.60;99.90
42365;DHT22;28498;54.400;18.566;2024-02-16T02:58:17;9.60;99.90
42365;DHT22;28498;54.400;18.566;2024-02-16T03:00:44;9.60;99.90
42365;DHT22;28498;54.400;18.566;2024-02-16T03:03:12;9.50;99.90
42365;DHT22;28498;54.400;18.566;2024-02-16T03:05:42;9.50;99.90
42365;DHT22;28498;54.400;18.566;2024-02-16T03:08:09;9.50;99.90
42365;DHT22;28498;54.400;18.566;2024-02-16T03:10:37;9.50;99.90
42365;DHT22;28498;54.400;18.566;2024-02-16T03:13:06;9.50;99.90
42365;DHT22;28498;54.400;18.566;2024-02-16T03:15:37;9.50;99.90
42365;DHT22;28498;54.400;18.566;2024-02-16T03:18:05;9.50;99.90
42365;DHT22;28498;54.400;18.566;2024-02-16T03:20:36;9.50;99.90
42365;DHT22;28498;54.400;18.566;2024-02-16T03:23:03;9.50;99.90
42365;DHT22;28498;54.400;18.566;2024-02-16T03:25:30;9.50;99.90
42365;DHT22;28498;54.400;18.566;2024-02-16T03:27:57;9.60;99.90
42365;DHT22;28498;54.400;18.566;2024-02-16T03:30:24;9.60;99.90
42365;DHT22;28498;54.400;18.566;2024-02-16T03:32:51;9.60;99.90
42365;DHT22;28498;54.400;18.566;2024-02-16T03:35:22;9.60;99.90
42365;DHT22;28498;54.400;18.566;2024-02-16T03:37:49;9.60;99.90
42365;DHT22;28498;54.400;18.566;2024-02-16T03:40:16;9.60;99.90
42365;DHT22;28498;54.400;18.566;2024-02-16T03:42:43;9.60;99.90
42365;DHT22;28498;54.400;18.566;2024-02-16T03:45:11;9.60;99.90
42365;DHT22;28498;54.400;18.566;2024-02-16T03:47:40;9.60;99.90
42365;DHT22;28498;54.400;18.566;2024-02-16T03:50:09;9.60;99.90
42365;DHT22;28498;54.400;18.566;2024-02-16T03:52:36;9.70;99.90
42365;DHT22;28498;54.400;18.566;2024-02-16T03:55:04;9.70;99.90
42365;DHT22;28498;54.400;18.566;2024-02-16T03:57:32;9.70;99.90
42365;DHT22;28498;54.400;18.566;2024-02-16T03:59:59;9.70;99.90
42365;DHT22;28498;54.400;18.566;2024-02-16T04:02:26;9.70;99.90
42365;DHT22;28498;54.400;18.566;2024-02-16T04:04:53;9.70;99.90
42365;DHT22;28498;54.400;18.566;2024-02-16T04:07:20;9.70;99.90
42365;DHT22;28498;54.400;18.566;2024-02-16T04:09:47;9.70;99.90
42365;DHT22;28498;54.400;18.566;2024-02-16T04:12:14;9.70;99.90
42365;DHT22;28498;54.400;18.566;2024-02-16T04:14:41;9.70;99.90
42365;DHT22;28498;54.400;18.566;2024-02-16T04:17:10;9.60;99.90
42365;DHT22;28498;54.400;18.566;2024-02-16T04:19:37;9.70;99.90
42365;DHT22;28498;54.400;18.566;2024-02-16T04:22:04;9.70;99.90
42365;DHT22;28498;54.400;18.566;2024-02-16T04:24:31;9.70;99.90
42365;DHT22;28498;54.400;18.566;2024-02-16T04:26:59;9.70;99.90
42365;DHT22;28498;54.400;18.566;2024-02-16T04:29:26;9.70;99.90
42365;DHT22;28498;54.400;18.566;2024-02-16T04:31:53;9.70;99.90
42365;DHT22;28498;54.400;18.566;2024-02-16T04:34:20;9.70;99.90
42365;DHT22;28498;54.400;18.566;2024-02-16T04:36:47;9.70;99.90
42365;DHT22;28498;54.400;18.566;2024-02-16T04:39:14;9.80;99.90
42365;DHT22;28498;54.400;18.566;2024-02-16T04:41:41;9.70;99.90
42365;DHT22;28498;54.400;18.566;2024-02-16T04:44:08;9.70;99.90
42365;DHT22;28498;54.400;18.566;2024-02-16T04:46:36;9.70;99.90
42365;DHT22;28498;54.400;18.566;2024-02-16T04:49:02;9.70;99.90
42365;DHT22;28498;54.400;18.566;2024-02-16T04:51:30;9.70;99.90
42365;DHT22;28498;54.400;18.566;2024-02-16T04:53:57;9.70;99.90
42365;DHT22;28498;54.400;18.566;2024-02-16T04:56:24;9.60;99.90
42365;DHT22;28498;54.400;18.566;2024-02-16T04:58:51;9.60;99.90
42365;DHT22;28498;54.400;18.566;2024-02-16T05:01:18;9.60;99.90
42365;DHT22;28498;54.400;18.566;2024-02-16T05:03:45;9.60;99.90
42365;DHT22;28498;54.400;18.566;2024-02-16T05:06:12;9.50;99.90
42365;DHT22;28498;54.400;18.566;2024-02-16T05:08:39;9.50;99.90
42365;DHT22;28498;54.400;18.566;2024-02-16T05:11:06;9.40;99.90
42365;DHT22;28498;54.400;18.566;2024-02-16T05:13:36;9.40;99.90
42365;DHT22;28498;54.400;18.566;2024-02-16T05:16:11;9.40;99.90
42365;DHT22;28498;54.400;18.566;2024-02-16T05:18:38;9.40;99.90
42365;DHT22;28498;54.400;18.566;2024-02-16T05:21:06;9.40;99.90
42365;DHT22;28498;54.400;18.566;2024-02-16T05:23:33;9.30;99.90
42365;DHT22;28498;54.400;18.566;2024-02-16T05:26:00;9.40;99.90
42365;DHT22;28498;54.400;18.566;2024-02-16T05:28:27;9.30;99.90
42365;DHT22;28498;54.400;18.566;2024-02-16T05:30:54;9.20;99.90
42365;DHT22;28498;54.400;18.566;2024-02-16T05:33:22;9.20;99.90
42365;DHT22;28498;54.400;18.566;2024-02-16T05:35:50;9.20;99.90
42365;DHT22;28498;54.400;18.566;2024-02-16T05:38:22;9.10;99.90
42365;DHT22;28498;54.400;18.566;2024-02-16T05:40:59;9.10;99.90
42365;DHT22;28498;54.400;18.566;2024-02-16T05:43:26;9.10;99.90
42365;DHT22;28498;54.400;18.566;2024-02-16T05:45:54;9.10;99.90
42365;DHT22;28498;54.400;18.566;2024-02-16T05:48:22;9.10;99.90
42365;DHT22;28498;54.400;18.566;2024-02-16T05:50:51;9.10;99.90
42365;DHT22;28498;54.400;18.566;2024-02-16T05:53:18;9.10;99.90
42365;DHT22;28498;54.400;18.566;2024-02-16T05:55:45;9.20;99.90
42365;DHT22;28498;54.400;18.566;2024-02-16T05:58:14;9.20;99.90
42365;DHT22;28498;54.400;18.566;2024-02-16T06:00:41;9.20;99.90
42365;DHT22;28498;54.400;18.566;2024-02-16T06:03:09;9.20;99.90
42365;DHT22;28498;54.400;18.566;2024-02-16T06:05:36;9.20;99.90
42365;DHT22;28498;54.400;18.566;2024-02-16T06:08:03;9.20;99.90
42365;DHT22;28498;54.400;18.566;2024-02-16T06:10:30;9.20;99.90
42365;DHT22;28498;54.400;18.566;2024-02-16T06:12:58;9.20;99.90
42365;DHT22;28498;54.400;18.566;2024-02-16T06:15:25;9.30;99.90
42365;DHT22;28498;54.400;18.566;2024-02-16T06:17:52;9.30;99.90
42365;DHT22;28498;54.400;18.566;2024-02-16T06:20:19;9.30;99.90
42365;DHT22;28498;54.400;18.566;2024-02-16T06:22:47;9.30;99.90
42365;DHT22;28498;54.400;18.566;2024-02-16T06:25:14;9.30;99.90
42365;DHT22;28498;54.400;18.566;2024-02-16T06:27:42;9.40;99.90
42365;DHT22;28498;54.400;18.566;2024-02-16T06:30:11;9.50;99.90
42365;DHT22;28498;54.400;18.566;2024-02-16T06:32:40;9.60;99.90
42365;DHT22;28498;54.400;18.566;2024-02-16T06:35:08;9.70;99.90
42365;DHT22;28498;54.400;18.566;2024-02-16T06:37:35;9.70;99.90
42365;DHT22;28498;54.400;18.566;2024-02-16T06:40:05;9.80;99.90
42365;DHT22;28498;54.400;18.566;2024-02-16T06:42:32;9.70;99.90
42365;DHT22;28498;54.400;18.566;2024-02-16T06:45:01;9.60;99.90
42365;DHT22;28498;54.400;18.566;2024-02-16T06:47:29;9.60;99.90
42365;DHT22;28498;54.400;18.566;2024-02-16T06:49:56;9.60;99.90
42365;DHT22;28498;54.400;18.566;2024-02-16T06:52:23;9.60;99.90
42365;DHT22;28498;54.400;18.566;2024-02-16T06:54:50;9.60;99.90
42365;DHT22;28498;54.400;18.566;2024-02-16T06:57:18;9.60;99.90
42365;DHT22;28498;54.400;18.566;2024-02-16T06:59:47;9.60;99.90
42365;DHT22;28498;54.400;18.566;2024-02-16T07:02:14;9.60;99.90
42365;DHT22;28498;54.400;18.566;2024-02-16T07:04:42;9.60;99.90
42365;DHT22;28498;54.400;18.566;2024-02-16T07:07:09;9.70;99.90
42365;DHT22;28498;54.400;18.566;2024-02-16T07:09:36;9.70;99.90
42365;DHT22;28498;54.400;18.566;2024-02-16T07:12:07;9.70;99.90
42365;DHT22;28498;54.400;18.566;2024-02-16T07:14:34;9.80;99.90
42365;DHT22;28498;54.400;18.566;2024-02-16T07:17:01;9.80;99.90
42365;DHT22;28498;54.400;18.566;2024-02-16T07:19:28;9.80;99.90
42365;DHT22;28498;54.400;18.566;2024-02-16T07:21:56;9.80;99.90
42365;DHT22;28498;54.400;18.566;2024-02-16T07:24:22;9.90;99.90
42365;DHT22;28498;54.400;18.566;2024-02-16T07:26:50;9.90;99.90
42365;DHT22;28498;54.400;18.566;2024-02-16T07:29:17;9.90;99.90
42365;DHT22;28498;54.400;18.566;2024-02-16T07:31:44;9.90;99.90
42365;DHT22;28498;54.400;18.566;2024-02-16T07:34:11;10.00;99.90
42365;DHT22;28498;54.400;18.566;2024-02-16T07:36:38;10.00;99.90
42365;DHT22;28498;54.400;18.566;2024-02-16T07:39:06;10.10;99.90
42365;DHT22;28498;54.400;18.566;2024-02-16T07:41:33;10.10;99.90
42365;DHT22;28498;54.400;18.566;2024-02-16T07:44:00;10.10;99.90
42365;DHT22;28498;54.400;18.566;2024-02-16T07:46:27;10.10;99.90
42365;DHT22;28498;54.400;18.566;2024-02-16T07:48:54;10.10;99.90
42365;DHT22;28498;54.400;18.566;2024-02-16T07:51:22;10.10;99.90
42365;DHT22;28498;54.400;18.566;2024-02-16T07:53:49;10.10;99.90
42365;DHT22;28498;54.400;18.566;2024-02-16T07:56:16;10.10;99.90
42365;DHT22;28498;54.400;18.566;2024-02-16T07:58:43;10.10;99.90
42365;DHT22;28498;54.400;18.566;2024-02-16T08:01:12;10.10;99.90
42365;DHT22;28498;54.400;18.566;2024-02-16T08:03:42;10.10;99.90
42365;DHT22;28498;54.400;18.566;2024-02-16T08:06:09;10.20;99.90
42365;DHT22;28498;54.400;18.566;2024-02-16T08:08:37;10.20;99.90
42365;DHT22;28498;54.400;18.566;2024-02-16T08:11:04;10.30;99.90
42365;DHT22;28498;54.400;18.566;2024-02-16T08:13:31;10.30;99.90
42365;DHT22;28498;54.400;18.566;2024-02-16T08:15:58;10.30;99.90
42365;DHT22;28498;54.400;18.566;2024-02-16T08:18:25;10.40;99.90
42365;DHT22;28498;54.400;18.566;2024-02-16T08:20:53;10.40;99.90
42365;DHT22;28498;54.400;18.566;2024-02-16T08:23:20;10.50;99.90
42365;DHT22;28498;54.400;18.566;2024-02-16T08:25:47;10.50;99.90
42365;DHT22;28498;54.400;18.566;2024-02-16T08:28:14;10.50;99.90
42365;DHT22;28498;54.400;18.566;2024-02-16T08:30:41;10.60;99.90
42365;DHT22;28498;54.400;18.566;2024-02-16T08:33:11;10.60;99.90
42365;DHT22;28498;54.400;18.566;2024-02-16T08:35:40;10.60;99.90
42365;DHT22;28498;54.400;18.566;2024-02-16T08:38:07;10.60;99.90
42365;DHT22;28498;54.400;18.566;2024-02-16T08:40:38;10.60;99.90
42365;DHT22;28498;54.400;18.566;2024-02-16T08:43:05;10.70;99.90
42365;DHT22;28498;54.400;18.566;2024-02-16T08:45:34;10.70;99.90
42365;DHT22;28498;54.400;18.566;2024-02-16T08:48:01;10.70;99.90
42365;DHT22;28498;54.400;18.566;2024-02-16T08:50:31;10.70;99.90
42365;DHT22;28498;54.400;18.566;2024-02-16T08:52:58;10.80;99.90
42365;DHT22;28498;54.400;18.566;2024-02-16T08:55:25;10.80;99.90
42365;DHT22;28498;54.400;18.566;2024-02-16T08:57:53;10.90;99.90
42365;DHT22;28498;54.400;18.566;2024-02-16T09:00:20;10.90;99.90
42365;DHT22;28498;54.400;18.566;2024-02-16T09:02:47;10.90;99.90
42365;DHT22;28498;54.400;18.566;2024-02-16T09:05:14;11.00;99.90
42365;DHT22;28498;54.400;18.566;2024-02-16T09:07:41;11.10;99.90
42365;DHT22;28498;54.400;18.566;2024-02-16T09:10:08;11.10;99.90
42365;DHT22;28498;54.400;18.566;2024-02-16T09:12:35;11.10;99.90
42365;DHT22;28498;54.400;18.566;2024-02-16T09:15:02;11.20;99.90
42365;DHT22;28498;54.400;18.566;2024-02-16T09:17:31;11.30;99.90
42365;DHT22;28498;54.400;18.566;2024-02-16T09:19:58;11.40;99.90
42365;DHT22;28498;54.400;18.566;2024-02-16T09:22:25;11.50;99.90
42365;DHT22;28498;54.400;18.566;2024-02-16T09:24:55;11.60;99.90
42365;DHT22;28498;54.400;18.566;2024-02-16T09:27:26;11.60;99.90
42365;DHT22;28498;54.400;18.566;2024-02-16T09:29:55;11.70;99.90
42365;DHT22;28498;54.400;18.566;2024-02-16T09:32:22;11.70;99.90
42365;DHT22;28498;54.400;18.566;2024-02-16T09:34:49;11.70;99.90
42365;DHT22;28498;54.400;18.566;2024-02-16T09:37:18;11.70;99.90
42365;DHT22;28498;54.400;18.566;2024-02-16T09:39:45;11.80;99.90
42365;DHT22;28498;54.400;18.566;2024-02-16T09:42:12;11.90;99.90
42365;DHT22;28498;54.400;18.566;2024-02-16T09:44:42;11.90;99.90
42365;DHT22;28498;54.400;18.566;2024-02-16T09:47:11;11.90;99.90
42365;DHT22;28498;54.400;18.566;2024-02-16T09:49:40;11.90;99.90
42365;DHT22;28498;54.400;18.566;2024-02-16T09:52:10;11.90;99.90
42365;DHT22;28498;54.400;18.566;2024-02-16T09:54:39;11.80;99.90
42365;DHT22;28498;54.400;18.566;2024-02-16T09:57:06;11.70;99.90
42365;DHT22;28498;54.400;18.566;2024-02-16T09:59:34;11.70;99.90
42365;DHT22;28498;54.400;18.566;2024-02-16T10:02:04;11.70;99.90
42365;DHT22;28498;54.400;18.566;2024-02-16T10:04:34;11.70;99.90
42365;DHT22;28498;54.400;18.566;2024-02-16T10:07:03;11.70;99.90
42365;DHT22;28498;54.400;18.566;2024-02-16T10:09:38;11.70;99.90
42365;DHT22;28498;54.400;18.566;2024-02-16T10:12:08;11.70;99.90
42365;DHT22;28498;54.400;18.566;2024-02-16T10:14:37;11.80;99.90
42365;DHT22;28498;54.400;18.566;2024-02-16T10:17:08;11.70;99.90
42365;DHT22;28498;54.400;18.566;2024-02-16T10:19:36;11.70;99.90
42365;DHT22;28498;54.400;18.566;2024-02-16T10:22:12;11.70;99.90
42365;DHT22;28498;54.400;18.566;2024-02-16T10:24:40;11.80;99.90
42365;DHT22;28498;54.400;18.566;2024-02-16T10:27:14;11.80;99.90
42365;DHT22;28498;54.400;18.566;2024-02-16T10:29:47;11.80;99.90
42365;DHT22;28498;54.400;18.566;2024-02-16T10:32:18;11.80;99.90
42365;DHT22;28498;54.400;18.566;2024-02-16T10:34:47;11.90;99.90
42365;DHT22;28498;54.400;18.566;2024-02-16T10:37:17;11.90;99.90
42365;DHT22;28498;54.400;18.566;2024-02-16T10:39:44;11.90;99.90
42365;DHT22;28498;54.400;18.566;2024-02-16T10:42:13;12.00;99.90
42365;DHT22;28498;54.400;18.566;2024-02-16T10:44:42;12.20;99.90
42365;DHT22;28498;54.400;18.566;2024-02-16T10:47:10;12.10;99.90
42365;DHT22;28498;54.400;18.566;2024-02-16T10:49:37;12.30;99.90
42365;DHT22;28498;54.400;18.566;2024-02-16T10:52:05;12.40;99.90
42365;DHT22;28498;54.400;18.566;2024-02-16T10:54:34;12.30;99.90
42365;DHT22;28498;54.400;18.566;2024-02-16T10:57:07;12.30;99.90
42365;DHT22;28498;54.400;18.566;2024-02-16T10:59:41;12.40;99.90
42365;DHT22;28498;54.400;18.566;2024-02-16T11:02:10;12.40;99.90
42365;DHT22;28498;54.400;18.566;2024-02-16T11:04:38;12.60;99.90
42365;DHT22;28498;54.400;18.566;2024-02-16T11:07:19;12.70;99.90
42365;DHT22;28498;54.400;18.566;2024-02-16T11:09:47;12.70;99.90
42365;DHT22;28498;54.400;18.566;2024-02-16T11:12:15;12.70;99.90
42365;DHT22;28498;54.400;18.566;2024-02-16T11:14:47;12.70;99.90
42365;DHT22;28498;54.400;18.566;2024-02-16T11:17:23;12.80;99.90
42365;DHT22;28498;54.400;18.566;2024-02-16T11:19:50;12.90;99.90
42365;DHT22;28498;54.400;18.566;2024-02-16T11:22:21;12.80;99.90
42365;DHT22;28498;54.400;18.566;2024-02-16T11:24:53;12.90;99.90
42365;DHT22;28498;54.400;18.566;2024-02-16T11:27:26;13.00;99.90
42365;DHT22;28498;54.400;18.566;2024-02-16T11:29:54;13.00;99.90
42365;DHT22;28498;54.400;18.566;2024-02-16T11:32:22;13.00;99.90
42365;DHT22;28498;54.400;18.566;2024-02-16T11:34:49;12.90;99.90
42365;DHT22;28498;54.400;18.566;2024-02-16T11:37:17;13.00;99.90
42365;DHT22;28498;54.400;18.566;2024-02-16T11:39:44;13.10;99.90
42365;DHT22;28498;54.400;18.566;2024-02-16T11:42:19;13.30;99.90
42365;DHT22;28498;54.400;18.566;2024-02-16T11:44:51;13.40;99.90
42365;DHT22;28498;54.400;18.566;2024-02-16T11:47:22;13.40;99.90
42365;DHT22;28498;54.400;18.566;2024-02-16T11:50:08;13.50;99.90
42365;DHT22;28498;54.400;18.566;2024-02-16T11:52:39;13.50;99.90
42365;DHT22;28498;54.400;18.566;2024-02-16T11:55:12;13.50;99.90
42365;DHT22;28498;54.400;18.566;2024-02-16T11:57:41;13.60;99.90
42365;DHT22;28498;54.400;18.566;2024-02-16T12:00:09;13.50;99.90
42365;DHT22;28498;54.400;18.566;2024-02-16T12:02:42;13.60;99.90
42365;DHT22;28498;54.400;18.566;2024-02-16T12:05:14;13.60;99.90
42365;DHT22;28498;54.400;18.566;2024-02-16T12:07:42;13.50;99.90
42365;DHT22;28498;54.400;18.566;2024-02-16T12:10:11;13.60;99.90
42365;DHT22;28498;54.400;18.566;2024-02-16T12:12:38;13.60;99.90
42365;DHT22;28498;54.400;18.566;2024-02-16T12:15:05;13.70;99.90
42365;DHT22;28498;54.400;18.566;2024-02-16T12:17:34;13.60;99.90
42365;DHT22;28498;54.400;18.566;2024-02-16T12:20:02;13.70;99.90
42365;DHT22;28498;54.400;18.566;2024-02-16T12:22:30;13.60;99.90
42365;DHT22;28498;54.400;18.566;2024-02-16T12:24:57;13.60;99.90
42365;DHT22;28498;54.400;18.566;2024-02-16T12:27:29;13.60;99.90
42365;DHT22;28498;54.400;18.566;2024-02-16T12:29:56;13.60;99.90
42365;DHT22;28498;54.400;18.566;2024-02-16T12:32:23;13.50;99.90
42365;DHT22;28498;54.400;18.566;2024-02-16T12:34:50;13.60;99.90
42365;DHT22;28498;54.400;18.566;2024-02-16T12:37:17;13.70;99.90
42365;DHT22;28498;54.400;18.566;2024-02-16T12:39:44;13.70;99.90
42365;DHT22;28498;54.400;18.566;2024-02-16T12:42:12;13.70;99.90
42365;DHT22;28498;54.400;18.566;2024-02-16T12:44:41;13.70;99.90
42365;DHT22;28498;54.400;18.566;2024-02-16T12:47:08;13.70;99.90
42365;DHT22;28498;54.400;18.566;2024-02-16T12:49:35;13.70;99.90
42365;DHT22;28498;54.400;18.566;2024-02-16T12:52:03;13.80;99.90
42365;DHT22;28498;54.400;18.566;2024-02-16T12:54:30;13.80;99.90
42365;DHT22;28498;54.400;18.566;2024-02-16T12:56:58;13.80;99.90
42365;DHT22;28498;54.400;18.566;2024-02-16T12:59:25;13.70;99.90
42365;DHT22;28498;54.400;18.566;2024-02-16T13:01:53;13.80;99.90
42365;DHT22;28498;54.400;18.566;2024-02-16T13:04:20;13.80;99.90
42365;DHT22;28498;54.400;18.566;2024-02-16T13:06:50;13.80;99.90
42365;DHT22;28498;54.400;18.566;2024-02-16T13:09:20;13.80;99.90
42365;DHT22;28498;54.400;18.566;2024-02-16T13:11:47;13.80;99.90
42365;DHT22;28498;54.400;18.566;2024-02-16T13:14:22;13.80;99.90
42365;DHT22;28498;54.400;18.566;2024-02-16T13:16:49;13.80;99.90
42365;DHT22;28498;54.400;18.566;2024-02-16T13:19:16;13.80;99.90
42365;DHT22;28498;54.400;18.566;2024-02-16T13:21:45;13.80;99.90
42365;DHT22;28498;54.400;18.566;2024-02-16T13:24:13;13.70;99.90
42365;DHT22;28498;54.400;18.566;2024-02-16T13:26:40;13.60;99.90
42365;DHT22;28498;54.400;18.566;2024-02-16T13:29:07;13.60;99.90
42365;DHT22;28498;54.400;18.566;2024-02-16T13:31:34;13.50;99.90
42365;DHT22;28498;54.400;18.566;2024-02-16T13:34:01;13.40;99.90
42365;DHT22;28498;54.400;18.566;2024-02-16T13:36:29;13.40;99.90
42365;DHT22;28498;54.400;18.566;2024-02-16T13:38:56;13.40;99.90
42365;DHT22;28498;54.400;18.566;2024-02-16T13:41:23;13.40;99.90
42365;DHT22;28498;54.400;18.566;2024-02-16T13:43:51;13.40;99.90
42365;DHT22;28498;54.400;18.566;2024-02-16T13:46:18;13.40;99.90
42365;DHT22;28498;54.400;18.566;2024-02-16T13:48:45;13.30;99.90
42365;DHT22;28498;54.400;18.566;2024-02-16T13:51:12;13.40;99.90
42365;DHT22;28498;54.400;18.566;2024-02-16T13:53:40;13.40;99.90
42365;DHT22;28498;54.400;18.566;2024-02-16T13:56:07;13.40;99.90
42365;DHT22;28498;54.400;18.566;2024-02-16T13:58:35;13.50;99.90
42365;DHT22;28498;54.400;18.566;2024-02-16T14:01:04;13.50;99.90
42365;DHT22;28498;54.400;18.566;2024-02-16T14:03:32;13.40;99.90
42365;DHT22;28498;54.400;18.566;2024-02-16T14:06:00;13.40;99.90
42365;DHT22;28498;54.400;18.566;2024-02-16T14:08:28;13.50;99.90
42365;DHT22;28498;54.400;18.566;2024-02-16T14:10:55;13.40;99.90
42365;DHT22;28498;54.400;18.566;2024-02-16T14:13:22;13.50;99.90
42365;DHT22;28498;54.400;18.566;2024-02-16T14:15:51;13.50;99.90
42365;DHT22;28498;54.400;18.566;2024-02-16T14:18:19;13.50;99.90
42365;DHT22;28498;54.400;18.566;2024-02-16T14:21:00;13.40;99.90
42365;DHT22;28498;54.400;18.566;2024-02-16T14:23:31;13.50;99.90
42365;DHT22;28498;54.400;18.566;2024-02-16T14:25:59;13.50;99.90
42365;DHT22;28498;54.400;18.566;2024-02-16T14:28:26;13.50;99.90
42365;DHT22;28498;54.400;18.566;2024-02-16T14:30:53;13.40;99.90
42365;DHT22;28498;54.400;18.566;2024-02-16T14:33:21;13.30;99.90
42365;DHT22;28498;54.400;18.566;2024-02-16T14:36:00;13.20;99.90
42365;DHT22;28498;54.400;18.566;2024-02-16T14:38:27;13.20;99.90
42365;DHT22;28498;54.400;18.566;2024-02-16T14:40:55;13.20;99.90
42365;DHT22;28498;54.400;18.566;2024-02-16T14:43:22;13.10;99.90
42365;DHT22;28498;54.400;18.566;2024-02-16T14:45:49;13.00;99.90
42365;DHT22;28498;54.400;18.566;2024-02-16T14:48:17;13.00;99.90
42365;DHT22;28498;54.400;18.566;2024-02-16T14:50:44;12.90;99.90
42365;DHT22;28498;54.400;18.566;2024-02-16T14:53:11;12.80;99.90
42365;DHT22;28498;54.400;18.566;2024-02-16T14:55:38;12.90;99.90
42365;DHT22;28498;54.400;18.566;2024-02-16T14:58:05;12.80;99.90
42365;DHT22;28498;54.400;18.566;2024-02-16T15:00:33;12.80;99.90
42365;DHT22;28498;54.400;18.566;2024-02-16T15:03:03;12.70;99.90
42365;DHT22;28498;54.400;18.566;2024-02-16T15:05:30;12.60;99.90
42365;DHT22;28498;54.400;18.566;2024-02-16T15:07:57;12.60;99.90
42365;DHT22;28498;54.400;18.566;2024-02-16T15:10:24;12.50;99.90
42365;DHT22;28498;54.400;18.566;2024-02-16T15:12:51;12.50;99.90
42365;DHT22;28498;54.400;18.566;2024-02-16T15:15:18;12.50;99.90
42365;DHT22;28498;54.400;18.566;2024-02-16T15:17:46;12.50;99.90
42365;DHT22;28498;54.400;18.566;2024-02-16T15:20:15;12.50;99.90
42365;DHT22;28498;54.400;18.566;2024-02-16T15:22:42;12.40;99.90
42365;DHT22;28498;54.400;18.566;2024-02-16T15:25:23;12.50;99.90
42365;DHT22;28498;54.400;18.566;2024-02-16T15:27:50;12.40;99.90